sensor_id;sensor_type;location;lat;lon;timestamp;pressure;altitude;pressure_sealevel;temperature;humidity
46456;BME280;32154;47.160;8.120;2022-08-18T00:01:04;95614.69;;;22.50;63.68
46456;BME280;32154;47.160;8.120;2022-08-18T00:06:07;95603.34;;;22.21;64.06
46456;BME280;32154;47.160;8.120;2022-08-18T00:11:09;95622.31;;;22.46;64.98
46456;BME280;32154;47.160;8.120;2022-08-18T00:16:13;95617.56;;;22.49;63.29
46456;BME280;32154;47.160;8.120;2022-08-18T00:21:17;95604.47;;;22.72;64.80
46456;BME280;32154;47.160;8.120;2022-08-18T00:26:20;95595.88;;;22.43;64.14
46456;BME280;32154;47.160;8.120;2022-08-18T00:31:42;95582.56;;;21.62;67.73
46456;BME280;32154;47.160;8.120;2022-08-18T00:36:45;95565.66;;;21.82;65.87
46456;BME280;32154;47.160;8.120;2022-08-18T00:42:19;95566.41;;;22.23;63.55
46456;BME280;32154;47.160;8.120;2022-08-18T00:47:31;95552.78;;;22.18;63.77
46456;BME280;32154;47.160;8.120;2022-08-18T00:52:46;95529.13;;;21.81;64.77
46456;BME280;32154;47.160;8.120;2022-08-18T00:57:53;95531.16;;;21.99;65.12
46456;BME280;32154;47.160;8.120;2022-08-18T01:02:59;95528.09;;;21.82;65.62
46456;BME280;32154;47.160;8.120;2022-08-18T01:08:06;95531.19;;;21.59;65.42
46456;BME280;32154;47.160;8.120;2022-08-18T01:13:09;95527.06;;;21.83;63.84
46456;BME280;32154;47.160;8.120;2022-08-18T01:18:13;95537.41;;;21.53;65.11
46456;BME280;32154;47.160;8.120;2022-08-18T01:23:36;95527.31;;;21.14;65.81
46456;BME280;32154;47.160;8.120;2022-08-18T01:28:42;95515.31;;;20.97;66.42
46456;BME280;32154;47.160;8.120;2022-08-18T01:33:49;95515.31;;;20.97;67.22
46456;BME280;32154;47.160;8.120;2022-08-18T01:38:53;95515.97;;;21.05;66.89
46456;BME280;32154;47.160;8.120;2022-08-18T01:44:20;95516.59;;;21.14;67.75
46456;BME280;32154;47.160;8.120;2022-08-18T01:49:29;95502.34;;;21.34;65.52
46456;BME280;32154;47.160;8.120;2022-08-18T01:54:58;95487.50;;;21.18;65.72
46456;BME280;32154;47.160;8.120;2022-08-18T02:00:28;95497.41;;;21.04;67.18
46456;BME280;32154;47.160;8.120;2022-08-18T02:06:02;95489.97;;;21.13;67.01
46456;BME280;32154;47.160;8.120;2022-08-18T02:11:29;95491.81;;;20.99;67.80
46456;BME280;32154;47.160;8.120;2022-08-18T02:17:08;95488.13;;;21.13;66.17
46456;BME280;32154;47.160;8.120;2022-08-18T02:22:48;95487.91;;;21.15;66.41
46456;BME280;32154;47.160;8.120;2022-08-18T02:28:34;95479.06;;;20.87;67.05
46456;BME280;32154;47.160;8.120;2022-08-18T02:34:16;95478.84;;;21.02;66.59
46456;BME280;32154;47.160;8.120;2022-08-18T02:39:35;95488.31;;;20.98;66.45
46456;BME280;32154;47.160;8.120;2022-08-18T02:45:09;95499.03;;;20.91;67.39
46456;BME280;32154;47.160;8.120;2022-08-18T02:50:36;95492.44;;;21.21;67.17
46456;BME280;32154;47.160;8.120;2022-08-18T02:55:46;95498.59;;;21.82;65.96
46456;BME280;32154;47.160;8.120;2022-08-18T03:00:57;95486.97;;;21.95;63.25
46456;BME280;32154;47.160;8.120;2022-08-18T03:06:40;95492.69;;;22.12;64.47
46456;BME280;32154;47.160;8.120;2022-08-18T03:12:09;95489.06;;;22.39;63.19
46456;BME280;32154;47.160;8.120;2022-08-18T03:17:59;95477.09;;;22.35;62.18
46456;BME280;32154;47.160;8.120;2022-08-18T03:23:11;95462.47;;;22.69;62.47
46456;BME280;32154;47.160;8.120;2022-08-18T03:29:27;95449.19;;;22.49;62.66
46456;BME280;32154;47.160;8.120;2022-08-18T03:34:51;95425.22;;;22.41;62.72
46456;BME280;32154;47.160;8.120;2022-08-18T03:40:51;95432.84;;;22.05;64.61
46456;BME280;32154;47.160;8.120;2022-08-18T03:46:27;95423.69;;;21.74;64.28
46456;BME280;32154;47.160;8.120;2022-08-18T03:52:06;95399.59;;;21.47;64.86
46456;BME280;32154;47.160;8.120;2022-08-18T03:57:38;95383.06;;;21.50;65.80
46456;BME280;32154;47.160;8.120;2022-08-18T04:03:03;95364.09;;;21.52;64.36
46456;BME280;32154;47.160;8.120;2022-08-18T04:08:52;95376.09;;;21.42;65.07
46456;BME280;32154;47.160;8.120;2022-08-18T04:14:40;95449.31;;;20.69;67.57
46456;BME280;32154;47.160;8.120;2022-08-18T04:20:41;95484.59;;;20.86;67.18
46456;BME280;32154;47.160;8.120;2022-08-18T04:26:10;95466.00;;;21.58;63.82
46456;BME280;32154;47.160;8.120;2022-08-18T04:31:36;95458.59;;;21.54;63.70
46456;BME280;32154;47.160;8.120;2022-08-18T04:37:24;95470.75;;;21.63;63.69
46456;BME280;32154;47.160;8.120;2022-08-18T04:43:07;95455.72;;;21.22;65.35
46456;BME280;32154;47.160;8.120;2022-08-18T04:48:36;95467.06;;;21.44;65.11
46456;BME280;32154;47.160;8.120;2022-08-18T04:54:06;95456.75;;;21.27;64.85
46456;BME280;32154;47.160;8.120;2022-08-18T05:00:12;95472.66;;;21.09;65.96
46456;BME280;32154;47.160;8.120;2022-08-18T05:12:26;95467.91;;;21.17;65.54
46456;BME280;32154;47.160;8.120;2022-08-18T05:19:08;95489.34;;;21.24;66.00
46456;BME280;32154;47.160;8.120;2022-08-18T06:24:51;95537.16;;;21.54;64.91
46456;BME280;32154;47.160;8.120;2022-08-18T06:35:40;95527.72;;;21.38;65.82
46456;BME280;32154;47.160;8.120;2022-08-18T06:40:48;95543.59;;;21.67;64.86
46456;BME280;32154;47.160;8.120;2022-08-18T06:45:51;95552.63;;;22.06;64.20
46456;BME280;32154;47.160;8.120;2022-08-18T06:51:13;95555.94;;;21.95;61.43
46456;BME280;32154;47.160;8.120;2022-08-18T07:01:39;95526.38;;;22.67;62.62
46456;BME280;32154;47.160;8.120;2022-08-18T07:06:42;95504.63;;;22.30;60.79
46456;BME280;32154;47.160;8.120;2022-08-18T07:12:06;95525.41;;;22.55;61.42
46456;BME280;32154;47.160;8.120;2022-08-18T07:17:18;95555.59;;;22.82;59.29
46456;BME280;32154;47.160;8.120;2022-08-18T07:22:57;95562.13;;;23.32;58.67
46456;BME280;32154;47.160;8.120;2022-08-18T07:28:38;95583.13;;;23.74;57.57
46456;BME280;32154;47.160;8.120;2022-08-18T07:33:47;95595.94;;;24.23;58.12
46456;BME280;32154;47.160;8.120;2022-08-18T07:39:29;95559.41;;;24.46;55.90
46456;BME280;32154;47.160;8.120;2022-08-18T07:45:11;95548.56;;;24.34;55.65
46456;BME280;32154;47.160;8.120;2022-08-18T07:56:06;95526.69;;;24.42;59.01
46456;BME280;32154;47.160;8.120;2022-08-18T08:06:44;95511.19;;;24.56;58.07
46456;BME280;32154;47.160;8.120;2022-08-18T08:29:11;95518.16;;;25.06;52.91
46456;BME280;32154;47.160;8.120;2022-08-18T08:34:49;95541.91;;;25.28;53.31
46456;BME280;32154;47.160;8.120;2022-08-18T08:39:57;95540.31;;;25.51;56.03
46456;BME280;32154;47.160;8.120;2022-08-18T08:45:08;95537.50;;;26.05;57.54
46456;BME280;32154;47.160;8.120;2022-08-18T08:50:21;95523.19;;;26.58;50.66
46456;BME280;32154;47.160;8.120;2022-08-18T08:55:33;95504.56;;;27.19;50.89
46456;BME280;32154;47.160;8.120;2022-08-18T09:00:37;95513.41;;;27.15;53.19
46456;BME280;32154;47.160;8.120;2022-08-18T09:22:52;95473.88;;;28.27;46.17
46456;BME280;32154;47.160;8.120;2022-08-18T09:28:21;95476.78;;;28.20;49.54
46456;BME280;32154;47.160;8.120;2022-08-18T09:34:30;95486.13;;;27.50;47.11
46456;BME280;32154;47.160;8.120;2022-08-18T09:39:35;95487.59;;;27.41;46.02
46456;BME280;32154;47.160;8.120;2022-08-18T09:55:55;95458.66;;;27.42;49.43
46456;BME280;32154;47.160;8.120;2022-08-18T10:01:33;95449.47;;;27.08;46.21
46456;BME280;32154;47.160;8.120;2022-08-18T10:06:38;95450.66;;;26.84;51.82
46456;BME280;32154;47.160;8.120;2022-08-18T10:34:48;95427.94;;;26.68;45.39
46456;BME280;32154;47.160;8.120;2022-08-18T10:40:16;95420.59;;;26.97;48.68
46456;BME280;32154;47.160;8.120;2022-08-18T10:45:30;95408.72;;;27.72;46.87
46456;BME280;32154;47.160;8.120;2022-08-18T10:57:29;95374.13;;;27.40;46.81
46456;BME280;32154;47.160;8.120;2022-08-18T11:07:55;95394.00;;;27.28;45.57
46456;BME280;32154;47.160;8.120;2022-08-18T11:13:09;95378.97;;;26.98;42.80
46456;BME280;32154;47.160;8.120;2022-08-18T11:18:33;95369.88;;;26.12;45.28
46456;BME280;32154;47.160;8.120;2022-08-18T11:24:05;95374.56;;;26.92;44.87
46456;BME280;32154;47.160;8.120;2022-08-18T11:29:40;95360.75;;;27.11;47.09
46456;BME280;32154;47.160;8.120;2022-08-18T12:01:33;95403.69;;;27.24;48.34
46456;BME280;32154;47.160;8.120;2022-08-18T12:17:40;95377.56;;;26.96;46.62
46456;BME280;32154;47.160;8.120;2022-08-18T12:22:55;95377.69;;;27.23;44.81
46456;BME280;32154;47.160;8.120;2022-08-18T12:28:19;95376.09;;;27.05;48.76
46456;BME280;32154;47.160;8.120;2022-08-18T12:33:23;95380.19;;;27.07;46.82
46456;BME280;32154;47.160;8.120;2022-08-18T12:38:35;95370.16;;;27.08;45.57
46456;BME280;32154;47.160;8.120;2022-08-18T12:43:58;95381.09;;;27.13;47.93
46456;BME280;32154;47.160;8.120;2022-08-18T12:49:23;95367.59;;;27.35;46.68
46456;BME280;32154;47.160;8.120;2022-08-18T12:54:46;95353.25;;;27.35;47.12
46456;BME280;32154;47.160;8.120;2022-08-18T13:00:17;95352.97;;;27.54;44.79
46456;BME280;32154;47.160;8.120;2022-08-18T13:05:39;95342.53;;;27.85;44.84
46456;BME280;32154;47.160;8.120;2022-08-18T13:10:41;95345.91;;;27.97;44.91
46456;BME280;32154;47.160;8.120;2022-08-18T13:15:52;95347.16;;;28.12;44.52
46456;BME280;32154;47.160;8.120;2022-08-18T13:21:02;95344.06;;;28.03;46.43
46456;BME280;32154;47.160;8.120;2022-08-18T13:26:14;95347.44;;;27.88;44.14
46456;BME280;32154;47.160;8.120;2022-08-18T13:31:37;95352.28;;;27.46;44.66
46456;BME280;32154;47.160;8.120;2022-08-18T13:36:40;95352.66;;;27.95;45.09
46456;BME280;32154;47.160;8.120;2022-08-18T13:41:47;95349.50;;;28.58;41.05
46456;BME280;32154;47.160;8.120;2022-08-18T13:46:50;95344.75;;;27.93;43.05
46456;BME280;32154;47.160;8.120;2022-08-18T13:52:11;95361.16;;;27.59;42.47
46456;BME280;32154;47.160;8.120;2022-08-18T13:57:35;95364.13;;;27.40;43.75
46456;BME280;32154;47.160;8.120;2022-08-18T14:02:40;95370.84;;;27.55;42.95
46456;BME280;32154;47.160;8.120;2022-08-18T14:07:43;95375.69;;;27.13;46.57
46456;BME280;32154;47.160;8.120;2022-08-18T14:12:46;95378.63;;;27.51;45.95
46456;BME280;32154;47.160;8.120;2022-08-18T14:17:53;95382.22;;;27.17;43.69
46456;BME280;32154;47.160;8.120;2022-08-18T14:23:03;95383.78;;;27.30;46.05
46456;BME280;32154;47.160;8.120;2022-08-18T14:28:07;95393.22;;;27.50;47.02
46456;BME280;32154;47.160;8.120;2022-08-18T14:33:19;95386.31;;;27.20;44.53
46456;BME280;32154;47.160;8.120;2022-08-18T14:38:37;95397.00;;;27.10;46.20
46456;BME280;32154;47.160;8.120;2022-08-18T14:43:46;95402.38;;;27.27;47.27
46456;BME280;32154;47.160;8.120;2022-08-18T14:49:09;95400.50;;;27.10;45.73
46456;BME280;32154;47.160;8.120;2022-08-18T14:54:14;95399.53;;;26.99;48.29
46456;BME280;32154;47.160;8.120;2022-08-18T14:59:20;95409.81;;;26.85;47.82
46456;BME280;32154;47.160;8.120;2022-08-18T15:04:50;95412.38;;;26.75;47.96
46456;BME280;32154;47.160;8.120;2022-08-18T15:10:24;95428.16;;;26.08;50.24
46456;BME280;32154;47.160;8.120;2022-08-18T15:15:30;95438.44;;;25.82;50.88
46456;BME280;32154;47.160;8.120;2022-08-18T15:20:53;95448.44;;;24.37;57.55
46456;BME280;32154;47.160;8.120;2022-08-18T15:25:56;95461.97;;;22.79;63.25
46456;BME280;32154;47.160;8.120;2022-08-18T15:31:00;95463.78;;;22.60;67.09
46456;BME280;32154;47.160;8.120;2022-08-18T15:36:18;95476.34;;;21.34;70.93
46456;BME280;32154;47.160;8.120;2022-08-18T15:41:45;95474.91;;;20.91;73.12
46456;BME280;32154;47.160;8.120;2022-08-18T15:46:50;95475.13;;;20.97;72.65
46456;BME280;32154;47.160;8.120;2022-08-18T15:51:54;95474.88;;;20.64;73.18
46456;BME280;32154;47.160;8.120;2022-08-18T15:56:59;95476.53;;;20.79;72.18
46456;BME280;32154;47.160;8.120;2022-08-18T16:02:08;95477.19;;;21.22;71.92
46456;BME280;32154;47.160;8.120;2022-08-18T16:07:32;95479.66;;;21.30;70.68
46456;BME280;32154;47.160;8.120;2022-08-18T16:13:05;95477.47;;;21.99;69.10
46456;BME280;32154;47.160;8.120;2022-08-18T16:18:51;95473.84;;;21.46;71.33
46456;BME280;32154;47.160;8.120;2022-08-18T16:24:13;95478.34;;;21.80;67.88
46456;BME280;32154;47.160;8.120;2022-08-18T16:29:21;95471.69;;;21.96;68.30
46456;BME280;32154;47.160;8.120;2022-08-18T16:34:30;95463.28;;;21.85;68.35
46456;BME280;32154;47.160;8.120;2022-08-18T16:39:41;95463.81;;;22.01;68.28
46456;BME280;32154;47.160;8.120;2022-08-18T16:44:47;95448.00;;;21.86;69.88
46456;BME280;32154;47.160;8.120;2022-08-18T16:49:50;95447.41;;;21.70;68.94
46456;BME280;32154;47.160;8.120;2022-08-18T16:54:59;95440.59;;;21.81;68.48
46456;BME280;32154;47.160;8.120;2022-08-18T17:00:04;95438.06;;;21.93;67.93
46456;BME280;32154;47.160;8.120;2022-08-18T17:05:08;95436.84;;;21.89;67.97
46456;BME280;32154;47.160;8.120;2022-08-18T17:10:31;95439.47;;;21.10;70.58
46456;BME280;32154;47.160;8.120;2022-08-18T17:15:57;95443.78;;;21.24;70.51
46456;BME280;32154;47.160;8.120;2022-08-18T17:21:05;95449.28;;;21.70;71.29
46456;BME280;32154;47.160;8.120;2022-08-18T17:32:57;95427.66;;;21.44;70.59
46456;BME280;32154;47.160;8.120;2022-08-18T17:38:53;95427.94;;;21.88;70.42
46456;BME280;32154;47.160;8.120;2022-08-18T17:44:16;95438.94;;;22.26;70.90
46456;BME280;32154;47.160;8.120;2022-08-18T17:49:33;95435.38;;;22.71;68.55
46456;BME280;32154;47.160;8.120;2022-08-18T17:55:06;95441.56;;;22.71;66.35
46456;BME280;32154;47.160;8.120;2022-08-18T18:00:14;95454.56;;;22.42;65.95
46456;BME280;32154;47.160;8.120;2022-08-18T18:05:19;95453.66;;;21.51;68.88
46456;BME280;32154;47.160;8.120;2022-08-18T18:10:40;95446.16;;;21.80;69.72
46456;BME280;32154;47.160;8.120;2022-08-18T18:16:01;95451.41;;;21.20;70.67
46456;BME280;32154;47.160;8.120;2022-08-18T18:21:24;95457.13;;;21.51;71.20
46456;BME280;32154;47.160;8.120;2022-08-18T18:26:48;95466.59;;;21.60;71.42
46456;BME280;32154;47.160;8.120;2022-08-18T18:32:00;95462.31;;;21.39;72.66
46456;BME280;32154;47.160;8.120;2022-08-18T18:37:28;95454.81;;;21.82;71.59
46456;BME280;32154;47.160;8.120;2022-08-18T18:42:34;95454.81;;;21.82;70.54
46456;BME280;32154;47.160;8.120;2022-08-18T18:59:01;95452.72;;;21.90;70.00
46456;BME280;32154;47.160;8.120;2022-08-18T19:04:43;95441.53;;;22.00;70.61
46456;BME280;32154;47.160;8.120;2022-08-18T19:10:38;95448.97;;;22.05;70.02
46456;BME280;32154;47.160;8.120;2022-08-18T19:15:50;95445.31;;;21.86;71.95
46456;BME280;32154;47.160;8.120;2022-08-18T19:21:09;95460.72;;;22.11;70.19
46456;BME280;32154;47.160;8.120;2022-08-18T19:27:04;95483.19;;;22.10;69.83
46456;BME280;32154;47.160;8.120;2022-08-18T19:32:19;95510.75;;;22.37;68.60
46456;BME280;32154;47.160;8.120;2022-08-18T19:37:55;95516.59;;;22.27;68.72
46456;BME280;32154;47.160;8.120;2022-08-18T19:43:06;95528.19;;;22.14;68.33
46456;BME280;32154;47.160;8.120;2022-08-18T19:48:47;95516.16;;;22.30;67.57
46456;BME280;32154;47.160;8.120;2022-08-18T19:54:24;95510.06;;;22.03;68.93
46456;BME280;32154;47.160;8.120;2022-08-18T20:00:08;95522.53;;;21.70;68.19
46456;BME280;32154;47.160;8.120;2022-08-18T20:05:36;95516.50;;;21.88;68.16
46456;BME280;32154;47.160;8.120;2022-08-18T20:16:33;95504.72;;;21.96;69.40
46456;BME280;32154;47.160;8.120;2022-08-18T20:22:10;95534.44;;;22.01;69.00
46456;BME280;32154;47.160;8.120;2022-08-18T20:27:41;95551.22;;;21.76;68.85
46456;BME280;32154;47.160;8.120;2022-08-18T20:38:33;95544.59;;;21.66;71.57
46456;BME280;32154;47.160;8.120;2022-08-18T20:43:38;95543.16;;;21.63;71.31
46456;BME280;32154;47.160;8.120;2022-08-18T20:54:08;95535.75;;;21.65;71.15
46456;BME280;32154;47.160;8.120;2022-08-18T20:59:52;95529.75;;;21.76;72.03
46456;BME280;32154;47.160;8.120;2022-08-18T21:04:58;95530.19;;;21.73;71.05
46456;BME280;32154;47.160;8.120;2022-08-18T21:10:18;95524.44;;;21.36;71.56
46456;BME280;32154;47.160;8.120;2022-08-18T21:15:26;95539.84;;;21.54;70.96
46456;BME280;32154;47.160;8.120;2022-08-18T21:20:33;95538.63;;;21.77;71.39
46456;BME280;32154;47.160;8.120;2022-08-18T21:26:06;95531.19;;;21.59;71.36
46456;BME280;32154;47.160;8.120;2022-08-18T21:31:28;95537.19;;;21.88;70.90
46456;BME280;32154;47.160;8.120;2022-08-18T21:36:51;95547.19;;;22.20;70.57
46456;BME280;32154;47.160;8.120;2022-08-18T21:41:57;95551.44;;;22.48;67.82
46456;BME280;32154;47.160;8.120;2022-08-18T21:47:14;95570.88;;;22.50;68.34
46456;BME280;32154;47.160;8.120;2022-08-18T21:52:23;95571.09;;;22.35;68.31
46456;BME280;32154;47.160;8.120;2022-08-18T21:57:49;95571.38;;;22.20;69.53
46456;BME280;32154;47.160;8.120;2022-08-18T22:14:18;95546.25;;;21.87;70.82
46456;BME280;32154;47.160;8.120;2022-08-18T22:19:23;95549.59;;;21.75;72.06
46456;BME280;32154;47.160;8.120;2022-08-18T22:24:37;95550.59;;;21.81;72.43
46456;BME280;32154;47.160;8.120;2022-08-18T22:29:48;95544.34;;;22.08;70.71
46456;BME280;32154;47.160;8.120;2022-08-18T22:35:10;95541.59;;;22.21;70.26
46456;BME280;32154;47.160;8.120;2022-08-18T22:40:17;95546.22;;;22.07;70.59
46456;BME280;32154;47.160;8.120;2022-08-18T22:45:24;95531.22;;;22.38;70.53
46456;BME280;32154;47.160;8.120;2022-08-18T22:50:26;95539.88;;;22.54;70.19
46456;BME280;32154;47.160;8.120;2022-08-18T22:55:28;95533.81;;;22.58;68.41
46456;BME280;32154;47.160;8.120;2022-08-18T23:00:33;95534.94;;;22.37;69.98
46456;BME280;32154;47.160;8.120;2022-08-18T23:05:55;95520.91;;;22.35;69.04
46456;BME280;32154;47.160;8.120;2022-08-18T23:10:57;95521.69;;;22.49;68.50
46456;BME280;32154;47.160;8.120;2022-08-18T23:15:59;95525.34;;;22.62;69.29
46456;BME280;32154;47.160;8.120;2022-08-18T23:21:48;95518.69;;;22.25;70.20
46456;BME280;32154;47.160;8.120;2022-08-18T23:26:55;95520.66;;;22.50;69.42
46456;BME280;32154;47.160;8.120;2022-08-18T23:32:19;95516.97;;;22.38;69.10
46456;BME280;32154;47.160;8.120;2022-08-18T23:37:51;95508.94;;;22.31;69.40
46456;BME280;32154;47.160;8.120;2022-08-18T23:42:53;95515.91;;;21.86;70.62
46456;BME280;32154;47.160;8.120;2022-08-18T23:47:55;95518.31;;;22.15;70.70
46456;BME280;32154;47.160;8.120;2022-08-18T23:53:00;95504.66;;;22.23;69.95
46456;BME280;32154;47.160;8.120;2022-08-18T23:58:06;95498.00;;;22.26;69.20
